Sand Springs, Montana
Current Conditions -  °F | °C
As of 2:15 AM on Wednesday 22 Oct 2014 (Local Time) from KMVH Reporting Station
Clear Clear  
Wind Chill:   Ceiling: Unl
Heat Index:   Visibility: 10mi
Dew Point: -1°   Wind: 10mph
Humidity: 61%   Direction: 300°WNW
Pressure: 29.91"   Gusts: NA
Location:  47.1°N, 107.49°W
Report Text: KMVH 220815Z AUTO 30009KT 10SM CLR 06/M01 A2991 RMK A01
Loading
Personal Weather Stations






























Interactive Weather Map
Tropical Storm Tracking
New forecast layout! Learn more

10-Day Weather Forecast

Advertisements
Track Severe Weather on mobile